createdAt,value
2022-12-29T00:00:01.182Z,9.31
2022-12-29T00:01:01.203Z,9.36
2022-12-29T00:02:01.111Z,9.37
2022-12-29T00:03:01.175Z,9.41
2022-12-29T00:04:01.189Z,9.46
2022-12-29T00:05:01.029Z,9.41
2022-12-29T00:06:01.025Z,9.43
2022-12-29T00:07:00.956Z,9.43
2022-12-29T00:08:00.928Z,9.41
2022-12-29T00:09:00.878Z,9.43
2022-12-29T00:10:00.914Z,9.41
2022-12-29T00:11:00.802Z,9.48
2022-12-29T00:12:00.769Z,9.41
2022-12-29T00:13:00.735Z,9.46
2022-12-29T00:14:00.696Z,9.43
2022-12-29T00:15:00.683Z,9.50
2022-12-29T00:16:00.739Z,9.56
2022-12-29T00:17:00.610Z,9.56
2022-12-29T00:18:00.567Z,9.59
2022-12-29T00:19:00.530Z,9.62
2022-12-29T00:20:00.504Z,9.61
2022-12-29T00:21:00.466Z,9.55
2022-12-29T00:22:00.498Z,9.59
2022-12-29T00:23:00.398Z,9.56
2022-12-29T00:24:00.365Z,9.58
2022-12-29T00:25:00.324Z,9.54
2022-12-29T00:26:00.302Z,9.54
2022-12-29T00:27:00.260Z,9.47
2022-12-29T00:28:06.349Z,9.56
2022-12-29T00:29:00.190Z,9.54
2022-12-29T00:30:00.183Z,9.51
2022-12-29T00:31:00.179Z,9.55
2022-12-29T00:32:00.105Z,9.55
2022-12-29T00:33:00.066Z,9.54
2022-12-29T00:34:00.078Z,9.56
2022-12-29T00:35:00.005Z,9.59
2022-12-29T00:35:59.966Z,9.56
2022-12-29T00:36:59.907Z,9.50
2022-12-29T00:37:59.877Z,9.55
2022-12-29T00:38:59.853Z,9.54
2022-12-29T00:39:59.870Z,9.51
2022-12-29T00:40:59.770Z,9.54
2022-12-29T00:41:59.754Z,9.54
2022-12-29T00:42:59.714Z,9.54
2022-12-29T00:43:59.689Z,9.54
2022-12-29T00:44:59.638Z,9.47
2022-12-29T00:45:59.674Z,9.56
2022-12-29T00:46:59.651Z,9.48
2022-12-29T00:47:59.538Z,9.56
2022-12-29T00:48:59.507Z,9.55
2022-12-29T00:49:59.477Z,9.59
2022-12-29T00:50:59.425Z,9.54
2022-12-29T00:51:59.457Z,9.56
2022-12-29T00:52:59.432Z,9.56
2022-12-29T00:53:59.344Z,9.56
2022-12-29T00:54:59.307Z,9.56
2022-12-29T00:55:59.263Z,9.55
2022-12-29T00:56:59.236Z,9.56
2022-12-29T00:57:59.265Z,9.55
2022-12-29T00:58:59.191Z,9.56
2022-12-29T00:59:59.145Z,9.55
2022-12-29T01:00:59.177Z,9.56
2022-12-29T01:01:59.254Z,9.56
2022-12-29T01:02:59.312Z,9.59
2022-12-29T01:04:03.688Z,9.56
2022-12-29T01:04:58.960Z,9.55
2022-12-29T01:05:58.920Z,9.51
2022-12-29T01:06:58.886Z,9.62
2022-12-29T01:07:58.879Z,9.54
2022-12-29T01:08:58.825Z,9.58
2022-12-29T01:09:58.856Z,9.65
2022-12-29T01:10:58.767Z,9.66
2022-12-29T01:11:58.709Z,9.66
2022-12-29T01:12:58.695Z,9.65
2022-12-29T01:13:58.650Z,9.65
2022-12-29T01:14:58.630Z,9.74
2022-12-29T01:15:58.756Z,9.74
2022-12-29T01:16:58.550Z,9.76
2022-12-29T01:17:58.517Z,9.76
2022-12-29T01:18:58.480Z,9.82
2022-12-29T01:19:58.452Z,9.84
2022-12-29T01:20:58.415Z,9.83
2022-12-29T01:21:58.433Z,9.84
2022-12-29T01:22:58.467Z,9.74
2022-12-29T01:23:58.309Z,9.69
2022-12-29T01:24:58.283Z,9.74
2022-12-29T01:25:58.252Z,9.76
2022-12-29T01:26:58.211Z,9.74
2022-12-29T01:27:58.169Z,9.79
2022-12-29T01:28:58.195Z,9.72
2022-12-29T01:29:58.107Z,9.74
2022-12-29T01:30:58.088Z,9.77
2022-12-29T01:31:58.053Z,9.74
2022-12-29T01:32:58.024Z,9.59
2022-12-29T01:33:57.971Z,9.58
2022-12-29T01:34:57.990Z,9.65
2022-12-29T01:35:57.897Z,9.69
2022-12-29T01:36:57.862Z,9.61
2022-12-29T01:37:57.852Z,9.73
2022-12-29T01:38:57.793Z,9.51
2022-12-29T01:39:57.777Z,9.55
2022-12-29T01:40:57.793Z,9.54
2022-12-29T01:41:57.739Z,9.55
2022-12-29T01:42:57.673Z,9.50
2022-12-29T01:43:57.632Z,9.54
2022-12-29T01:44:57.594Z,9.64
2022-12-29T01:45:57.573Z,9.55
2022-12-29T01:46:57.592Z,9.54
2022-12-29T01:47:57.503Z,9.55
2022-12-29T01:48:57.475Z,9.68
2022-12-29T01:49:57.443Z,9.64
2022-12-29T01:50:57.395Z,9.59
2022-12-29T01:51:57.362Z,9.64
2022-12-29T01:52:57.389Z,9.62
2022-12-29T01:53:57.288Z,9.61
2022-12-29T01:54:57.250Z,9.59
2022-12-29T01:55:57.244Z,9.64
2022-12-29T01:56:57.192Z,9.64
2022-12-29T01:57:57.151Z,9.64
2022-12-29T01:58:57.192Z,9.62
2022-12-29T01:59:57.101Z,9.68
2022-12-29T02:00:57.076Z,9.77
2022-12-29T02:01:57.080Z,9.69
2022-12-29T02:02:57.044Z,9.76
2022-12-29T02:03:56.962Z,9.84
2022-12-29T02:05:01.353Z,9.79
2022-12-29T02:05:56.876Z,9.84
2022-12-29T02:06:56.842Z,9.87
2022-12-29T02:07:56.805Z,9.84
2022-12-29T02:08:56.799Z,9.87
2022-12-29T02:09:56.773Z,9.89
2022-12-29T02:10:57.136Z,9.94
2022-12-29T02:11:56.679Z,9.95
2022-12-29T02:12:56.681Z,9.91
2022-12-29T02:13:56.655Z,9.99
2022-12-29T02:14:57.534Z,9.98
2022-12-29T02:15:56.576Z,10.02
2022-12-29T02:16:56.588Z,10.09
2022-12-29T02:17:56.473Z,10.07
2022-12-29T02:18:56.438Z,10.10
2022-12-29T02:19:56.396Z,9.97
2022-12-29T02:20:56.363Z,10.02
2022-12-29T02:21:56.330Z,10.10
2022-12-29T02:22:56.373Z,10.19
2022-12-29T02:23:56.267Z,10.20
2022-12-29T02:24:56.225Z,10.17
2022-12-29T02:25:56.196Z,10.23
2022-12-29T02:26:56.163Z,10.23
2022-12-29T02:27:56.123Z,10.31
2022-12-29T02:28:56.165Z,10.30
2022-12-29T02:29:56.102Z,10.30
2022-12-29T02:30:56.120Z,10.25
2022-12-29T02:31:56.061Z,10.28
2022-12-29T02:32:55.972Z,10.30
2022-12-29T02:33:55.940Z,10.28
2022-12-29T02:34:55.889Z,10.31
2022-12-29T02:35:56.097Z,10.34
2022-12-29T02:36:55.835Z,10.25
2022-12-29T02:37:55.798Z,10.26
2022-12-29T02:38:55.752Z,10.31
2022-12-29T02:39:55.789Z,10.26
2022-12-29T02:40:55.681Z,10.26
2022-12-29T02:41:55.718Z,10.31
2022-12-29T02:42:55.633Z,10.31
2022-12-29T02:43:55.597Z,10.26
2022-12-29T02:44:55.551Z,10.31
2022-12-29T02:45:55.548Z,10.34
2022-12-29T02:46:55.564Z,10.35
2022-12-29T02:47:55.460Z,10.34
2022-12-29T02:48:55.468Z,10.44
2022-12-29T02:49:55.386Z,10.38
2022-12-29T02:50:55.351Z,10.40
2022-12-29T02:51:55.324Z,10.41
2022-12-29T02:52:55.347Z,10.40
2022-12-29T02:53:55.269Z,10.41
2022-12-29T02:54:55.223Z,10.42
2022-12-29T02:55:55.179Z,10.48
2022-12-29T02:56:55.149Z,10.35
2022-12-29T02:57:55.182Z,10.44
2022-12-29T02:58:55.086Z,10.53
2022-12-29T03:00:03.105Z,10.49
2022-12-29T03:00:55.021Z,10.53
2022-12-29T03:01:55.200Z,10.48
2022-12-29T03:02:55.107Z,10.56
2022-12-29T03:03:54.905Z,10.63
2022-12-29T03:04:54.887Z,10.56
2022-12-29T03:05:54.842Z,10.57
2022-12-29T03:06:54.798Z,10.56
2022-12-29T03:07:54.836Z,10.59
2022-12-29T03:08:54.737Z,10.54
2022-12-29T03:09:54.708Z,10.53
2022-12-29T03:10:54.678Z,10.57
2022-12-29T03:11:54.636Z,10.54
2022-12-29T03:12:54.605Z,10.56
2022-12-29T03:13:54.712Z,10.59
2022-12-29T03:14:54.533Z,10.59
2022-12-29T03:15:54.497Z,10.57
2022-12-29T03:16:54.548Z,10.57
2022-12-29T03:17:54.451Z,10.54
2022-12-29T03:18:54.481Z,10.64
2022-12-29T03:19:54.469Z,10.59
2022-12-29T03:20:54.331Z,10.71
2022-12-29T03:21:54.311Z,10.63
2022-12-29T03:22:54.268Z,10.64
2022-12-29T03:23:54.232Z,10.64
2022-12-29T03:24:54.252Z,10.57
2022-12-29T03:25:54.179Z,10.68
2022-12-29T03:26:54.152Z,10.68
2022-12-29T03:27:54.097Z,10.64
2022-12-29T03:28:54.107Z,10.63
2022-12-29T03:29:54.085Z,10.61
2022-12-29T03:30:54.078Z,10.63
2022-12-29T03:31:53.969Z,10.64
2022-12-29T03:32:53.930Z,10.60
2022-12-29T03:33:53.899Z,10.63
2022-12-29T03:34:53.917Z,10.63
2022-12-29T03:35:53.827Z,10.68
2022-12-29T03:36:53.848Z,10.64
2022-12-29T03:37:53.775Z,10.61
2022-12-29T03:38:53.727Z,10.68
2022-12-29T03:39:53.762Z,10.68
2022-12-29T03:40:53.673Z,10.68
2022-12-29T03:41:53.624Z,10.63
2022-12-29T03:42:53.599Z,10.64
2022-12-29T03:43:53.570Z,10.72
2022-12-29T03:44:53.599Z,10.69
2022-12-29T03:45:53.512Z,10.74
2022-12-29T03:46:53.510Z,10.68
2022-12-29T03:47:53.433Z,10.72
2022-12-29T03:48:53.415Z,10.71
2022-12-29T03:49:53.424Z,10.81
2022-12-29T03:50:53.322Z,10.71
2022-12-29T03:51:53.298Z,10.79
2022-12-29T03:52:53.264Z,10.81
2022-12-29T03:53:53.223Z,10.75
2022-12-29T03:54:53.192Z,10.78
2022-12-29T03:55:53.233Z,10.86
2022-12-29T03:56:53.134Z,10.75
2022-12-29T03:57:53.090Z,10.79
2022-12-29T03:58:53.061Z,10.81
2022-12-29T03:59:53.037Z,10.90
2022-12-29T04:00:52.994Z,10.81
2022-12-29T04:01:53.076Z,10.87
2022-12-29T04:02:53.154Z,10.92
2022-12-29T04:03:52.929Z,10.89
2022-12-29T04:04:52.860Z,10.87
2022-12-29T04:05:52.829Z,10.87
2022-12-29T04:06:52.799Z,10.86
2022-12-29T04:07:52.847Z,10.84
2022-12-29T04:08:52.722Z,10.89
2022-12-29T04:09:52.698Z,10.87
2022-12-29T04:10:52.664Z,10.79
2022-12-29T04:11:52.633Z,10.87
2022-12-29T04:12:52.596Z,10.79
2022-12-29T04:13:52.626Z,10.90
2022-12-29T04:14:52.528Z,10.87
2022-12-29T04:15:52.551Z,10.87
2022-12-29T04:16:52.455Z,10.87
2022-12-29T04:17:52.421Z,10.87
2022-12-29T04:18:52.394Z,10.86
2022-12-29T04:19:52.436Z,10.86
2022-12-29T04:20:52.328Z,10.89
2022-12-29T04:21:52.299Z,10.84
2022-12-29T04:22:52.330Z,10.89
2022-12-29T04:23:52.230Z,10.84
2022-12-29T04:24:52.235Z,10.84
2022-12-29T04:25:52.217Z,10.81
2022-12-29T04:26:52.120Z,10.74
2022-12-29T04:27:52.136Z,10.86
2022-12-29T04:28:52.062Z,10.86
2022-12-29T04:29:52.034Z,10.86
2022-12-29T04:30:52.040Z,10.78
2022-12-29T04:31:52.018Z,10.86
2022-12-29T04:32:51.994Z,10.89
2022-12-29T04:33:51.888Z,10.90
2022-12-29T04:34:51.888Z,10.89
2022-12-29T04:35:51.841Z,10.87
2022-12-29T04:36:51.807Z,10.82
2022-12-29T04:37:51.825Z,10.82
2022-12-29T04:38:51.724Z,10.89
2022-12-29T04:39:51.717Z,10.82
2022-12-29T04:40:51.660Z,10.92
2022-12-29T04:41:51.636Z,10.89
2022-12-29T04:42:51.671Z,10.90
2022-12-29T04:43:51.552Z,10.79
2022-12-29T04:44:51.527Z,10.87
2022-12-29T04:45:51.490Z,10.90
2022-12-29T04:46:51.530Z,10.78
2022-12-29T04:47:51.426Z,10.79
2022-12-29T04:48:51.457Z,10.75
2022-12-29T04:49:52.997Z,10.81
2022-12-29T04:50:51.328Z,10.89
2022-12-29T04:51:51.293Z,10.87
2022-12-29T04:52:51.260Z,10.90
2022-12-29T04:53:51.335Z,10.87
2022-12-29T04:54:51.249Z,10.87
2022-12-29T04:55:51.152Z,10.84
2022-12-29T04:56:51.122Z,10.82
2022-12-29T04:57:51.093Z,10.93
2022-12-29T04:58:51.051Z,10.84
2022-12-29T04:59:51.041Z,10.92
2022-12-29T05:00:51.048Z,10.89
2022-12-29T05:01:51.067Z,10.84
2022-12-29T05:02:51.077Z,10.90
2022-12-29T05:03:51.022Z,10.94
2022-12-29T05:04:50.856Z,10.89
2022-12-29T05:05:50.820Z,10.89
2022-12-29T05:06:50.794Z,10.93
2022-12-29T05:07:50.767Z,10.93
2022-12-29T05:08:50.774Z,10.92
2022-12-29T05:09:50.700Z,10.93
2022-12-29T05:10:50.661Z,10.94
2022-12-29T05:11:50.632Z,10.90
2022-12-29T05:12:50.620Z,10.99
2022-12-29T05:13:50.617Z,11.00
2022-12-29T05:14:50.532Z,10.96
2022-12-29T05:15:50.526Z,10.99
2022-12-29T05:16:50.461Z,10.93
2022-12-29T05:17:50.421Z,11.05
2022-12-29T05:18:50.456Z,11.04
2022-12-29T05:19:50.398Z,11.00
2022-12-29T05:20:50.342Z,10.97
2022-12-29T05:21:50.295Z,11.07
2022-12-29T05:22:50.252Z,11.12
2022-12-29T05:23:50.225Z,11.17
2022-12-29T05:24:50.262Z,11.15
2022-12-29T05:25:50.179Z,11.10
2022-12-29T05:26:50.126Z,11.15
2022-12-29T05:27:50.097Z,11.17
2022-12-29T05:28:50.068Z,11.18
2022-12-29T05:29:50.033Z,11.14
2022-12-29T05:30:50.067Z,11.25
2022-12-29T05:31:49.985Z,11.26
2022-12-29T05:32:49.921Z,11.27
2022-12-29T05:33:49.908Z,11.23
2022-12-29T05:34:49.856Z,11.22
2022-12-29T05:35:49.831Z,11.27
2022-12-29T05:36:49.863Z,11.26
2022-12-29T05:37:49.782Z,11.23
2022-12-29T05:38:49.764Z,11.25
2022-12-29T05:39:49.697Z,11.25
2022-12-29T05:40:49.654Z,11.22
2022-12-29T05:41:49.630Z,11.26
2022-12-29T05:42:49.666Z,11.27
2022-12-29T05:43:49.562Z,11.33
2022-12-29T05:44:49.536Z,11.30
2022-12-29T05:45:49.492Z,11.27
2022-12-29T05:46:49.521Z,11.33
2022-12-29T05:47:49.416Z,11.30
2022-12-29T05:48:49.443Z,11.33
2022-12-29T05:49:49.360Z,11.36
2022-12-29T05:50:49.326Z,11.37
2022-12-29T05:51:49.301Z,11.35
2022-12-29T05:52:49.261Z,11.33
2022-12-29T05:53:49.267Z,11.36
2022-12-29T05:54:49.274Z,11.44
2022-12-29T05:55:49.394Z,11.41
2022-12-29T05:56:49.136Z,11.43
2022-12-29T05:57:49.096Z,11.40
2022-12-29T05:58:49.060Z,11.43
2022-12-29T05:59:49.030Z,11.35
2022-12-29T06:00:49.077Z,11.43
2022-12-29T06:01:49.133Z,11.48
2022-12-29T06:02:49.108Z,11.44
2022-12-29T06:03:49.115Z,11.44
2022-12-29T06:04:48.868Z,11.47
2022-12-29T06:05:48.830Z,11.48
2022-12-29T06:06:48.853Z,11.48
2022-12-29T06:07:48.769Z,11.50
2022-12-29T06:08:48.729Z,11.50
2022-12-29T06:09:48.709Z,11.50
2022-12-29T06:10:48.735Z,11.48
2022-12-29T06:11:48.629Z,11.50
2022-12-29T06:12:48.658Z,11.44
2022-12-29T06:13:48.563Z,11.48
2022-12-29T06:14:48.538Z,11.45
2022-12-29T06:15:48.503Z,11.54
2022-12-29T06:16:48.577Z,11.54
2022-12-29T06:17:48.422Z,11.59
2022-12-29T06:18:48.443Z,11.52
2022-12-29T06:19:48.383Z,11.54
2022-12-29T06:20:48.348Z,11.62
2022-12-29T06:21:48.295Z,11.63
2022-12-29T06:22:48.266Z,11.50
2022-12-29T06:23:48.234Z,11.60
2022-12-29T06:24:48.259Z,11.63
2022-12-29T06:25:48.177Z,11.55
2022-12-29T06:26:48.122Z,11.63
2022-12-29T06:27:48.103Z,11.63
2022-12-29T06:28:48.080Z,11.60
2022-12-29T06:29:48.037Z,11.60
2022-12-29T06:30:48.052Z,11.57
2022-12-29T06:31:47.993Z,11.57
2022-12-29T06:32:47.948Z,11.51
2022-12-29T06:33:50.121Z,11.50
2022-12-29T06:34:47.880Z,11.48
2022-12-29T06:35:47.830Z,11.45
2022-12-29T06:36:47.812Z,11.35
2022-12-29T06:37:47.764Z,11.37
2022-12-29T06:38:47.785Z,11.32
2022-12-29T06:39:47.739Z,11.30
2022-12-29T06:40:47.678Z,11.32
2022-12-29T06:41:47.638Z,11.26
2022-12-29T06:42:47.606Z,11.25
2022-12-29T06:43:47.636Z,11.23
2022-12-29T06:44:47.537Z,11.25
2022-12-29T06:45:47.523Z,11.25
2022-12-29T06:46:47.494Z,11.23
2022-12-29T06:47:47.445Z,11.27
2022-12-29T06:48:47.548Z,11.27
2022-12-29T06:49:47.389Z,11.22
2022-12-29T06:50:47.348Z,11.26
2022-12-29T06:51:47.312Z,11.18
2022-12-29T06:52:47.265Z,11.25
2022-12-29T06:53:47.304Z,11.25
2022-12-29T06:54:47.198Z,11.17
2022-12-29T06:55:47.175Z,11.23
2022-12-29T06:56:47.138Z,11.17
2022-12-29T06:57:47.128Z,11.14
2022-12-29T06:58:47.074Z,11.17
2022-12-29T06:59:47.096Z,11.17
2022-12-29T07:00:47.070Z,11.14
2022-12-29T07:01:47.104Z,10.99
2022-12-29T07:02:47.084Z,10.96
2022-12-29T07:03:46.922Z,11.04
2022-12-29T07:04:46.869Z,11.02
2022-12-29T07:05:46.906Z,11.02
2022-12-29T07:06:46.808Z,10.94
2022-12-29T07:07:46.775Z,10.96
2022-12-29T07:08:46.749Z,10.92
2022-12-29T07:09:46.721Z,10.90
2022-12-29T07:10:46.676Z,10.92
2022-12-29T07:11:46.728Z,10.90
2022-12-29T07:12:46.617Z,10.93
2022-12-29T07:13:46.585Z,10.90
2022-12-29T07:14:46.543Z,10.87
2022-12-29T07:15:46.507Z,10.79
2022-12-29T07:16:46.561Z,10.92
2022-12-29T07:17:46.504Z,10.81
2022-12-29T07:18:46.414Z,10.81
2022-12-29T07:19:46.382Z,10.90
2022-12-29T07:20:46.347Z,10.89
2022-12-29T07:21:46.311Z,10.87
2022-12-29T07:22:46.274Z,10.82
2022-12-29T07:23:46.290Z,10.93
2022-12-29T07:24:46.213Z,10.87
2022-12-29T07:25:46.182Z,10.90
2022-12-29T07:26:46.143Z,10.93
2022-12-29T07:27:46.128Z,10.94
2022-12-29T07:28:46.081Z,10.92
2022-12-29T07:29:46.140Z,10.92
2022-12-29T07:30:46.014Z,10.96
2022-12-29T07:31:46.041Z,10.90
2022-12-29T07:32:45.948Z,10.97
2022-12-29T07:33:45.913Z,10.92
2022-12-29T07:34:45.884Z,10.87
2022-12-29T07:35:45.913Z,10.87
2022-12-29T07:36:45.810Z,10.94
2022-12-29T07:37:45.773Z,11.00
2022-12-29T07:38:45.735Z,11.02
2022-12-29T07:39:49.038Z,11.02
2022-12-29T07:40:45.677Z,11.10
2022-12-29T07:41:45.697Z,11.10
2022-12-29T07:42:45.604Z,11.19
2022-12-29T07:43:45.573Z,11.18
2022-12-29T07:44:45.573Z,11.19
2022-12-29T07:45:45.587Z,11.27
2022-12-29T07:46:55.492Z,11.26
2022-12-29T07:47:45.519Z,11.33
2022-12-29T07:48:45.694Z,11.23
2022-12-29T07:49:45.380Z,11.27
2022-12-29T07:50:45.337Z,11.23
2022-12-29T07:51:45.304Z,11.25
2022-12-29T07:52:45.285Z,11.29
2022-12-29T07:53:45.312Z,11.22
2022-12-29T07:54:45.238Z,11.22
2022-12-29T07:55:45.171Z,11.23
2022-12-29T07:56:45.183Z,11.26
2022-12-29T07:57:45.108Z,11.23
2022-12-29T07:58:45.081Z,11.26
2022-12-29T07:59:45.101Z,11.32
2022-12-29T08:00:45.016Z,11.35
2022-12-29T08:01:45.043Z,11.29
2022-12-29T08:02:45.010Z,11.32
2022-12-29T08:03:44.951Z,11.32
2022-12-29T08:04:44.881Z,11.30
2022-12-29T08:05:44.949Z,11.35
2022-12-29T08:06:44.820Z,11.35
2022-12-29T08:07:44.778Z,11.47
2022-12-29T08:08:44.743Z,11.48
2022-12-29T08:09:44.709Z,11.45
2022-12-29T08:10:44.680Z,11.50
2022-12-29T08:11:44.747Z,11.50
2022-12-29T08:12:44.611Z,11.47
2022-12-29T08:13:44.575Z,11.48
2022-12-29T08:14:44.614Z,11.48
2022-12-29T08:15:44.548Z,11.43
2022-12-29T08:16:44.490Z,11.40
2022-12-29T08:17:44.460Z,11.41
2022-12-29T08:18:44.425Z,11.41
2022-12-29T08:19:44.373Z,11.47
2022-12-29T08:20:44.406Z,11.47
2022-12-29T08:21:44.317Z,11.45
2022-12-29T08:22:44.312Z,11.44
2022-12-29T08:23:44.245Z,11.44
2022-12-29T08:24:44.220Z,11.48
2022-12-29T08:25:44.225Z,11.52
2022-12-29T08:26:44.163Z,11.47
2022-12-29T08:27:44.116Z,11.43
2022-12-29T08:28:44.078Z,11.48
2022-12-29T08:29:44.060Z,11.43
2022-12-29T08:30:44.173Z,11.51
2022-12-29T08:31:44.049Z,11.35
2022-12-29T08:32:43.985Z,11.48
2022-12-29T08:33:43.912Z,11.45
2022-12-29T08:34:43.902Z,11.48
2022-12-29T08:35:43.861Z,11.44
2022-12-29T08:36:43.874Z,11.51
2022-12-29T08:37:43.796Z,11.47
2022-12-29T08:38:43.754Z,11.47
2022-12-29T08:39:43.726Z,11.55
2022-12-29T08:40:43.682Z,11.57
2022-12-29T08:41:43.759Z,11.59
2022-12-29T08:42:43.682Z,11.62
2022-12-29T08:43:43.586Z,11.63
2022-12-29T08:44:43.562Z,11.78
2022-12-29T08:45:43.615Z,11.78
2022-12-29T08:46:43.532Z,11.70
2022-12-29T08:47:43.457Z,11.77
2022-12-29T08:48:43.432Z,11.80
2022-12-29T08:49:43.392Z,11.88
2022-12-29T08:50:43.406Z,11.91
2022-12-29T08:51:43.331Z,11.87
2022-12-29T08:52:43.286Z,11.84
2022-12-29T08:53:43.261Z,11.88
2022-12-29T08:54:43.229Z,11.91
2022-12-29T08:55:43.257Z,11.95
2022-12-29T08:56:43.181Z,11.87
2022-12-29T08:57:43.141Z,11.90
2022-12-29T08:58:43.092Z,11.91
2022-12-29T08:59:43.056Z,11.84
2022-12-29T09:00:50.176Z,11.84
2022-12-29T09:01:43.121Z,11.87
2022-12-29T09:02:43.167Z,11.80
2022-12-29T09:04:13.699Z,11.75
2022-12-29T09:04:42.915Z,11.75
2022-12-29T09:05:42.868Z,11.81
2022-12-29T09:06:42.893Z,11.78
2022-12-29T09:07:42.992Z,11.90
2022-12-29T09:08:42.759Z,11.78
2022-12-29T09:09:42.824Z,11.77
2022-12-29T09:10:42.706Z,11.81
2022-12-29T09:11:42.732Z,11.87
2022-12-29T09:12:42.712Z,11.80
2022-12-29T09:13:42.600Z,11.87
2022-12-29T09:14:42.571Z,11.95
2022-12-29T09:15:42.608Z,12.00
2022-12-29T09:16:42.578Z,12.09
2022-12-29T09:17:42.511Z,12.09
2022-12-29T09:18:42.432Z,12.07
2022-12-29T09:19:42.408Z,12.07
2022-12-29T09:20:42.387Z,12.18
2022-12-29T09:21:42.421Z,12.31
2022-12-29T09:22:42.302Z,12.37
2022-12-29T09:23:42.378Z,12.29
2022-12-29T09:24:42.250Z,12.40
2022-12-29T09:25:42.215Z,12.50
2022-12-29T09:26:46.932Z,12.39
2022-12-29T09:27:42.146Z,12.57
2022-12-29T09:28:42.102Z,12.45
2022-12-29T09:29:42.128Z,12.45
2022-12-29T09:30:42.049Z,12.53
2022-12-29T09:31:42.146Z,12.55
2022-12-29T09:32:45.135Z,12.53
2022-12-29T09:33:41.949Z,12.49
2022-12-29T09:34:41.921Z,12.49
2022-12-29T09:35:41.940Z,12.62
2022-12-29T09:36:41.867Z,12.72
2022-12-29T09:37:41.816Z,12.80
2022-12-29T09:38:41.790Z,12.79
2022-12-29T09:39:41.979Z,12.70
2022-12-29T09:40:41.713Z,12.80
2022-12-29T09:41:41.737Z,12.78
2022-12-29T09:42:41.654Z,12.93
2022-12-29T09:43:41.676Z,12.94
2022-12-29T09:44:41.617Z,13.00
2022-12-29T09:45:41.607Z,13.03
2022-12-29T09:46:41.595Z,13.04
2022-12-29T09:47:41.507Z,13.16
2022-12-29T09:48:41.507Z,13.15
2022-12-29T09:49:41.452Z,13.23
2022-12-29T09:50:41.464Z,13.25
2022-12-29T09:51:41.453Z,13.31
2022-12-29T09:52:41.329Z,13.35
2022-12-29T09:53:41.384Z,13.33
2022-12-29T09:54:41.280Z,13.27
2022-12-29T09:55:41.233Z,13.30
2022-12-29T09:56:41.200Z,13.31
2022-12-29T09:57:41.169Z,13.31
2022-12-29T09:58:41.137Z,13.39
2022-12-29T09:59:41.206Z,13.42
2022-12-29T10:00:41.649Z,13.44
2022-12-29T10:01:41.734Z,13.53
2022-12-29T10:02:41.262Z,13.47
2022-12-29T10:03:40.971Z,13.38
2022-12-29T10:04:40.937Z,13.39
2022-12-29T10:05:40.961Z,13.47
2022-12-29T10:07:03.666Z,13.54
2022-12-29T10:07:40.841Z,13.54
2022-12-29T10:08:40.832Z,13.56
2022-12-29T10:09:40.780Z,13.56
2022-12-29T10:10:40.749Z,13.60
2022-12-29T10:11:40.779Z,13.67
2022-12-29T10:12:41.614Z,13.72
2022-12-29T10:13:40.659Z,13.72
2022-12-29T10:14:40.625Z,13.74
2022-12-29T10:15:40.591Z,13.87
2022-12-29T10:16:40.726Z,13.95
2022-12-29T10:17:40.624Z,13.97
2022-12-29T10:18:40.502Z,14.11
2022-12-29T10:19:40.477Z,14.07
2022-12-29T10:20:40.441Z,14.18
2022-12-29T10:21:40.398Z,14.18
2022-12-29T10:22:40.375Z,14.23
2022-12-29T10:23:40.390Z,14.28
2022-12-29T10:24:41.268Z,14.26
2022-12-29T10:25:40.274Z,14.14
2022-12-29T10:26:40.242Z,14.14
2022-12-29T10:27:40.360Z,14.11
2022-12-29T10:28:40.509Z,14.08
2022-12-29T10:29:40.225Z,14.03
2022-12-29T10:30:40.122Z,13.93
2022-12-29T10:31:40.135Z,13.96
2022-12-29T10:32:40.052Z,13.95
2022-12-29T10:33:40.020Z,13.96
2022-12-29T10:34:40.735Z,13.97
2022-12-29T10:35:40.034Z,13.97
2022-12-29T10:36:39.935Z,14.00
2022-12-29T10:37:39.902Z,13.96
2022-12-29T10:38:39.859Z,13.96
2022-12-29T10:39:39.839Z,14.00
2022-12-29T10:40:40.629Z,13.95
2022-12-29T10:41:39.861Z,14.04
2022-12-29T10:42:40.627Z,14.05
2022-12-29T10:43:39.712Z,14.03
2022-12-29T10:44:39.682Z,14.08
2022-12-29T10:45:39.710Z,14.10
2022-12-29T10:46:39.613Z,14.17
2022-12-29T10:47:39.652Z,14.25
2022-12-29T10:48:39.565Z,14.29
2022-12-29T10:49:39.526Z,14.23
2022-12-29T10:50:39.558Z,14.18
2022-12-29T10:51:39.472Z,14.30
2022-12-29T10:52:40.385Z,14.22
2022-12-29T10:53:39.482Z,14.36
2022-12-29T10:54:39.366Z,14.30
2022-12-29T10:55:39.332Z,14.37
2022-12-29T10:56:39.346Z,14.45
2022-12-29T10:57:39.278Z,14.33
2022-12-29T10:58:39.241Z,14.37
2022-12-29T10:59:39.483Z,14.29
2022-12-29T11:00:39.215Z,14.37
2022-12-29T11:01:39.259Z,14.25
2022-12-29T11:02:39.209Z,14.22
2022-12-29T11:03:39.081Z,14.22
2022-12-29T11:04:39.058Z,14.12
2022-12-29T11:05:39.076Z,14.12
2022-12-29T11:06:39.011Z,14.11
2022-12-29T11:07:38.955Z,14.15
2022-12-29T11:08:39.729Z,14.10
2022-12-29T11:09:43.175Z,14.08
2022-12-29T11:10:38.860Z,14.10
2022-12-29T11:11:38.901Z,14.11
2022-12-29T11:12:38.877Z,13.93
2022-12-29T11:13:39.522Z,13.89
2022-12-29T11:14:38.760Z,13.90
2022-12-29T11:15:38.710Z,13.92
2022-12-29T11:16:38.759Z,13.71
2022-12-29T11:17:38.693Z,13.78
2022-12-29T11:18:39.241Z,13.75
2022-12-29T11:19:41.076Z,13.71
2022-12-29T11:20:38.864Z,13.70
2022-12-29T11:21:38.525Z,13.74
2022-12-29T11:22:38.485Z,13.65
2022-12-29T11:23:38.532Z,13.60
2022-12-29T11:24:38.438Z,13.67
2022-12-29T11:25:38.412Z,13.60
2022-12-29T11:26:38.368Z,13.56
2022-12-29T11:27:38.334Z,13.50
2022-12-29T11:28:38.406Z,13.56
2022-12-29T11:29:38.268Z,13.52
2022-12-29T11:30:38.235Z,13.44
2022-12-29T11:31:38.243Z,13.47
2022-12-29T11:32:38.183Z,13.35
2022-12-29T11:33:38.174Z,13.33
2022-12-29T11:34:39.637Z,13.33
2022-12-29T11:35:38.096Z,13.18
2022-12-29T11:36:38.084Z,13.23
2022-12-29T11:37:38.015Z,13.13
2022-12-29T11:38:37.986Z,13.27
2022-12-29T11:39:37.962Z,13.25
2022-12-29T11:40:38.631Z,13.12
2022-12-29T11:41:37.889Z,13.15
2022-12-29T11:42:37.874Z,13.11
2022-12-29T11:43:37.833Z,13.13
2022-12-29T11:44:37.899Z,13.05
2022-12-29T11:45:37.843Z,12.98
2022-12-29T11:46:37.810Z,12.90
2022-12-29T11:47:37.717Z,12.83
2022-12-29T11:48:37.696Z,12.78
2022-12-29T11:49:37.827Z,12.70
2022-12-29T11:50:37.647Z,12.65
2022-12-29T11:51:37.583Z,12.43
2022-12-29T11:52:37.569Z,12.36
2022-12-29T11:53:37.738Z,12.32
2022-12-29T11:54:37.542Z,12.28
2022-12-29T11:55:37.482Z,12.25
2022-12-29T11:56:40.856Z,12.21
2022-12-29T11:57:37.413Z,12.17
2022-12-29T11:58:37.355Z,12.12
2022-12-29T11:59:37.875Z,12.09
2022-12-29T12:00:37.288Z,12.12
2022-12-29T12:01:37.300Z,11.95
2022-12-29T12:02:42.495Z,12.02
2022-12-29T12:03:37.365Z,11.90
2022-12-29T12:04:37.180Z,11.87
2022-12-29T12:05:37.203Z,11.86
2022-12-29T12:06:37.088Z,11.84
2022-12-29T12:07:37.066Z,11.83
2022-12-29T12:08:37.036Z,11.77
2022-12-29T12:09:37.003Z,11.77
2022-12-29T12:10:37.015Z,11.83
2022-12-29T12:11:36.951Z,11.90
2022-12-29T12:12:36.896Z,11.95
2022-12-29T12:13:36.885Z,11.91
2022-12-29T12:14:36.841Z,11.84
2022-12-29T12:15:41.842Z,11.90
2022-12-29T12:16:36.998Z,11.77
2022-12-29T12:17:36.738Z,11.81
2022-12-29T12:18:36.703Z,11.72
2022-12-29T12:19:36.692Z,11.65
2022-12-29T12:20:36.634Z,11.72
2022-12-29T12:21:40.476Z,11.73
2022-12-29T12:22:36.571Z,11.70
2022-12-29T12:23:36.565Z,11.66
2022-12-29T12:24:36.511Z,11.66
2022-12-29T12:25:36.561Z,11.78
2022-12-29T12:26:36.443Z,11.70
2022-12-29T12:27:37.155Z,11.75
2022-12-29T12:28:36.993Z,11.72
2022-12-29T12:29:36.337Z,11.73
2022-12-29T12:30:36.357Z,11.69
2022-12-29T12:31:36.448Z,11.77
2022-12-29T12:32:36.251Z,11.70
2022-12-29T12:33:36.296Z,11.69
2022-12-29T12:34:36.186Z,11.66
2022-12-29T12:35:36.256Z,11.66
2022-12-29T12:36:36.189Z,11.63
2022-12-29T12:37:36.104Z,11.62
2022-12-29T12:38:36.078Z,11.69
2022-12-29T12:39:36.028Z,11.63
2022-12-29T12:40:36.003Z,11.59
2022-12-29T12:41:35.963Z,11.54
2022-12-29T12:42:36.001Z,11.52
2022-12-29T12:43:35.899Z,11.44
2022-12-29T12:44:35.870Z,11.45
2022-12-29T12:45:35.893Z,11.47
2022-12-29T12:46:35.861Z,11.41
2022-12-29T12:47:35.837Z,11.51
2022-12-29T12:48:36.661Z,11.40
2022-12-29T12:49:35.758Z,11.45
2022-12-29T12:50:35.714Z,11.36
2022-12-29T12:51:37.656Z,11.41
2022-12-29T12:52:35.688Z,11.35
2022-12-29T12:53:35.572Z,11.40
2022-12-29T12:54:35.596Z,11.35
2022-12-29T12:55:35.496Z,11.45
2022-12-29T12:56:35.482Z,11.33